Arklow Rock — PBZM — position and weather

sailwx.info

Track history (hours):
 
Tides and Currents Weather Stations Pressure Air Temp Water Temp Dewpoint Dewpoint Depression Visibility Wind Speed Wind Dir Waves Ship Positions

Arklow Rock

Last reported at 2014-Jul-30 11:19 UTC. Time now 2014-Jul-30 17:19 UTC.
Position N 43°32' W 001°30'.

Length 90 m; draft 3.5 m.

Type: Cargo ship. MMSI: 246002000.

Date/timePositionNaut miles runAvg speedWind from/ knotsBaromVisibWave heightAir tempDewpointWater temp
2014-Jul-30 11:19N 43°32' W 001°30'0 0.0
2014-Jul-30 10:25N 43°32' W 001°30'0 0.0
2014-Jul-30 09:31N 43°32' W 001°30'0 0.0
2014-Jul-30 08:31N 43°32' W 001°30'0 0.0
2014-Jul-30 07:31N 43°32' W 001°30'0 0.0
2014-Jul-30 06:31N 43°32' W 001°30'0 0.0
2014-Jul-30 05:28N 43°32' W 001°30'3 3.6
2014-Jul-30 04:34N 43°32' W 001°34'3 3.3
2014-Jul-30 03:33N 43°31' W 001°39'7 7.1
2014-Jul-30 02:32N 43°29' W 001°48'172 8.2
2014-Jul-29 05:31N 43°44' W 005°45'  
2014-Jul-25 23:14N 48°18' W 006°08'24810.4
2014-Jul-24 23:22N 50°34' W 000°49'1211.7
2014-Jul-24 22:21N 50°40' W 000°33'911.0
2014-Jul-24 21:33N 50°45' W 000°21'6 6.5
2014-Jul-24 20:34N 50°50' W 000°14'0 0.0
2014-Jul-22 21:33N 50°50' W 000°14'2 2.1
2014-Jul-22 20:33N 50°48' W 000°14'1512.2
2014-Jul-22 19:18N 50°43' E 000°09'911.4
2014-Jul-22 18:33N 50°43' E 000°23'1111.1
2014-Jul-22 17:33N 50°46' E 000°39'1212.1
2014-Jul-22 16:33N 50°52' E 000°56'2613.1
2014-Jul-22 14:33N 51°06' E 001°32'1312.8
2014-Jul-22 13:33N 51°15' E 001°46'1111.2
2014-Jul-22 12:32N 51°23' E 001°58'9 9.5
2014-Jul-22 11:33N 51°22' E 002°13'10 9.4
2014-Jul-22 10:31N 51°23' E 002°29'5 5.3
2014-Jul-22 09:33N 51°20' E 002°36'0 0.0
2014-Jul-22 08:30N 51°20' E 002°36'0 0.0
2014-Jul-22 07:33N 51°20' E 002°36'0 0.0
2014-Jul-22 06:24N 51°20' E 002°36'0 0.0
2014-Jul-22 05:33N 51°20' E 002°36'0 0.0
2014-Jul-22 04:33N 51°20' E 002°36'0 0.0
2014-Jul-22 03:27N 51°20' E 002°36'0 0.0
2014-Jul-22 02:33N 51°20' E 002°36'0 0.0
2014-Jul-22 01:32N 51°20' E 002°36'0 0.0
2014-Jul-22 00:23N 51°20' E 002°36'0 0.0
2014-Jul-21 23:29N 51°20' E 002°36'0 0.0
2014-Jul-21 22:32N 51°20' E 002°36'0 0.1
2014-Jul-21 21:32N 51°20' E 002°36'0 0.0
2014-Jul-21 20:32N 51°20' E 002°36'0 0.0
2014-Jul-21 20:17N 51°20' E 002°36'0 0.0
2014-Jul-21 19:32N 51°20' E 002°36'0 0.0
2014-Jul-21 18:29N 51°20' E 002°36'0 0.0
2014-Jul-21 17:32N 51°20' E 002°36'0 0.0
2014-Jul-21 16:32N 51°20' E 002°36'0 0.0
2014-Jul-21 15:32N 51°20' E 002°36'0 0.0
2014-Jul-21 14:29N 51°20' E 002°36'0 0.0
2014-Jul-21 13:32N 51°20' E 002°36'0 0.0
2014-Jul-21 12:32N 51°20' E 002°36'0 0.0
2014-Jul-21 11:32N 51°20' E 002°36'0 0.0
2014-Jul-21 10:29N 51°20' E 002°36'0 0.0
2014-Jul-21 09:29N 51°20' E 002°36'0 0.0
2014-Jul-21 08:29N 51°20' E 002°36'0 0.0
2014-Jul-21 07:32N 51°20' E 002°36'0 0.0
2014-Jul-21 06:29N 51°20' E 002°36'0 0.0
2014-Jul-21 05:26N 51°20' E 002°36'0 0.0
2014-Jul-21 04:32N 51°20' E 002°36'0 0.0
2014-Jul-21 03:32N 51°20' E 002°36'0 0.0
2014-Jul-21 02:29N 51°20' E 002°36'0 0.0
2014-Jul-21 01:32N 51°20' E 002°36'0 0.0
2014-Jul-21 00:23N 51°20' E 002°36'0 0.1
2014-Jul-20 23:32N 51°20' E 002°36'0 0.1
2014-Jul-20 22:29N 51°20' E 002°36'0 0.0
2014-Jul-20 21:32N 51°20' E 002°36'0 0.0
2014-Jul-20 20:32N 51°20' E 002°36'0 0.0
2014-Jul-20 19:32N 51°20' E 002°36'0 0.0
2014-Jul-20 18:31N 51°20' E 002°36'0 0.0
2014-Jul-20 17:29N 51°20' E 002°36'0 0.0
2014-Jul-20 16:32N 51°20' E 002°36'0 0.1
2014-Jul-20 15:31N 51°20' E 002°36'0 0.0
2014-Jul-20 14:28N 51°20' E 002°36'0 0.0
2014-Jul-20 13:31N 51°20' E 002°36'0 0.0
2014-Jul-20 12:31N 51°20' E 002°36'0 0.1
2014-Jul-20 11:31N 51°20' E 002°36'  
Track history (hours):
 
Tides and Currents Weather Stations Pressure Air Temp Water Temp Dewpoint Dewpoint Depression Visibility Wind Speed Wind Dir Waves Ship Positions

Arklow Rock

Last reported at 2014-Jul-30 11:19 UTC. Time now 2014-Jul-30 17:19 UTC.
Position N 43°32' W 001°30'.

Length 90 m; draft 3.5 m.

Type: Cargo ship. MMSI: 246002000.

Date/timePositionNaut miles runAvg speedWind from/ knotsBaromVisibWave heightAir tempDewpointWater temp
2014-Jul-30 11:19N 43°32' W 001°30'0 0.0
2014-Jul-30 10:25N 43°32' W 001°30'0 0.0
2014-Jul-30 09:31N 43°32' W 001°30'0 0.0
2014-Jul-30 08:31N 43°32' W 001°30'0 0.0
2014-Jul-30 07:31N 43°32' W 001°30'0 0.0
2014-Jul-30 06:31N 43°32' W 001°30'0 0.0
2014-Jul-30 05:28N 43°32' W 001°30'3 3.6
2014-Jul-30 04:34N 43°32' W 001°34'3 3.3
2014-Jul-30 03:33N 43°31' W 001°39'7 7.1
2014-Jul-30 02:32N 43°29' W 001°48'172 8.2
2014-Jul-29 05:31N 43°44' W 005°45'  
2014-Jul-25 23:14N 48°18' W 006°08'24810.4
2014-Jul-24 23:22N 50°34' W 000°49'1211.7
2014-Jul-24 22:21N 50°40' W 000°33'911.0
2014-Jul-24 21:33N 50°45' W 000°21'6 6.5
2014-Jul-24 20:34N 50°50' W 000°14'0 0.0
2014-Jul-22 21:33N 50°50' W 000°14'2 2.1
2014-Jul-22 20:33N 50°48' W 000°14'1512.2
2014-Jul-22 19:18N 50°43' E 000°09'911.4
2014-Jul-22 18:33N 50°43' E 000°23'1111.1
2014-Jul-22 17:33N 50°46' E 000°39'1212.1
2014-Jul-22 16:33N 50°52' E 000°56'2613.1
2014-Jul-22 14:33N 51°06' E 001°32'1312.8
2014-Jul-22 13:33N 51°15' E 001°46'1111.2
2014-Jul-22 12:32N 51°23' E 001°58'9 9.5
2014-Jul-22 11:33N 51°22' E 002°13'10 9.4
2014-Jul-22 10:31N 51°23' E 002°29'5 5.3
2014-Jul-22 09:33N 51°20' E 002°36'0 0.0
2014-Jul-22 08:30N 51°20' E 002°36'0 0.0
2014-Jul-22 07:33N 51°20' E 002°36'0 0.0
2014-Jul-22 06:24N 51°20' E 002°36'0 0.0
2014-Jul-22 05:33N 51°20' E 002°36'0 0.0
2014-Jul-22 04:33N 51°20' E 002°36'0 0.0
2014-Jul-22 03:27N 51°20' E 002°36'0 0.0
2014-Jul-22 02:33N 51°20' E 002°36'0 0.0
2014-Jul-22 01:32N 51°20' E 002°36'0 0.0
2014-Jul-22 00:23N 51°20' E 002°36'0 0.0
2014-Jul-21 23:29N 51°20' E 002°36'0 0.0
2014-Jul-21 22:32N 51°20' E 002°36'0 0.1
2014-Jul-21 21:32N 51°20' E 002°36'0 0.0
2014-Jul-21 20:32N 51°20' E 002°36'0 0.0
2014-Jul-21 20:17N 51°20' E 002°36'0 0.0
2014-Jul-21 19:32N 51°20' E 002°36'0 0.0
2014-Jul-21 18:29N 51°20' E 002°36'0 0.0
2014-Jul-21 17:32N 51°20' E 002°36'0 0.0
2014-Jul-21 16:32N 51°20' E 002°36'0 0.0
2014-Jul-21 15:32N 51°20' E 002°36'0 0.0
2014-Jul-21 14:29N 51°20' E 002°36'0 0.0
2014-Jul-21 13:32N 51°20' E 002°36'0 0.0
2014-Jul-21 12:32N 51°20' E 002°36'0 0.0
2014-Jul-21 11:32N 51°20' E 002°36'0 0.0
2014-Jul-21 10:29N 51°20' E 002°36'0 0.0
2014-Jul-21 09:29N 51°20' E 002°36'0 0.0
2014-Jul-21 08:29N 51°20' E 002°36'0 0.0
2014-Jul-21 07:32N 51°20' E 002°36'0 0.0
2014-Jul-21 06:29N 51°20' E 002°36'0 0.0
2014-Jul-21 05:26N 51°20' E 002°36'0 0.0
2014-Jul-21 04:32N 51°20' E 002°36'0 0.0
2014-Jul-21 03:32N 51°20' E 002°36'0 0.0
2014-Jul-21 02:29N 51°20' E 002°36'0 0.0
2014-Jul-21 01:32N 51°20' E 002°36'0 0.0
2014-Jul-21 00:23N 51°20' E 002°36'0 0.1
2014-Jul-20 23:32N 51°20' E 002°36'0 0.1
2014-Jul-20 22:29N 51°20' E 002°36'0 0.0
2014-Jul-20 21:32N 51°20' E 002°36'0 0.0
2014-Jul-20 20:32N 51°20' E 002°36'0 0.0
2014-Jul-20 19:32N 51°20' E 002°36'0 0.0
2014-Jul-20 18:31N 51°20' E 002°36'0 0.0
2014-Jul-20 17:29N 51°20' E 002°36'0 0.0
2014-Jul-20 16:32N 51°20' E 002°36'0 0.1
2014-Jul-20 15:31N 51°20' E 002°36'0 0.0
2014-Jul-20 14:28N 51°20' E 002°36'0 0.0
2014-Jul-20 13:31N 51°20' E 002°36'0 0.0
2014-Jul-20 12:31N 51°20' E 002°36'0 0.1
2014-Jul-20 11:31N 51°20' E 002°36'  

Dump ship's entire track history